WetterOnline ( https://www.wetteronline.de )

Wetter aktuell Gnewikow

Aktuelles Wetter: Neuruppin - Alt Ruppin (50m)

6-stündlich | Neueste Meldungen
Ortszeit Temperatur Wetter
Mo, 16.05. 2:00 9.3° C leicht bewölkt
So, 15.05. 20:00 19.7° C wolkenlos
So, 15.05. 14:00 19.5° C wolkenlos
So, 15.05. 8:00 10.6° C wolkenlos
So, 15.05. 2:00 7.1° C wolkenlos
Sa, 14.05. 20:00 17.1° C wolkenlos
Sa, 14.05. 14:00 17.8° C bedeckt
Sa, 14.05. 8:00 11.1° C bedeckt
Ortszeit Temperatur Wetter
Mo, 16.05. 7:00 10.8° C fast wolkenlos
Mo, 16.05. 6:50 10.8° C fast wolkenlos
Mo, 16.05. 6:40 10.4° C leicht bewölkt
Mo, 16.05. 6:30 9.2° C fast wolkenlos
Mo, 16.05. 6:20 9.2° C fast wolkenlos
Mo, 16.05. 6:10 8.9° C fast wolkenlos
Mo, 16.05. 6:00 8.3° C wolkenlos
Mo, 16.05. 5:30 7.8° C fast wolkenlos
Mo, 16.05. 5:00 8.2° C wolkig
Mo, 16.05. 4:30 8.1° C fast wolkenlos
Mo, 16.05. 4:00 8.2° C wolkenlos
Ortszeit Relative Feuchte Sichtweite
Mo, 16.05. 2:00 87% 45 km
So, 15.05. 20:00 38% 55 km
So, 15.05. 14:00 39% 40 km
So, 15.05. 8:00 75% 35 km
So, 15.05. 2:00 94% 30 km
Sa, 14.05. 20:00 49% 40 km
Sa, 14.05. 14:00 49% 40 km
Sa, 14.05. 8:00 77% 30 km
Ortszeit Relative Feuchte Sichtweite
Mo, 16.05. 7:00 75% 45 km
Mo, 16.05. 6:50 75% -
Mo, 16.05. 6:40 78% -
Mo, 16.05. 6:30 83% 40 km
Mo, 16.05. 6:20 83% -
Mo, 16.05. 6:10 85% -
Mo, 16.05. 6:00 88% 40 km
Mo, 16.05. 5:30 90% 35 km
Mo, 16.05. 5:00 90% 35 km
Mo, 16.05. 4:30 91% 35 km
Mo, 16.05. 4:00 90% 35 km
Ortszeit Niederschlagsmenge Niederschlagsart
Mo, 16.05. 2:00 0.0 l/m2 in 6 Std. -
So, 15.05. 20:00 0.0 l/m2 in 12 Std. -
So, 15.05. 14:00 0.0 l/m2 in 6 Std. -
So, 15.05. 8:00 0.0 l/m2 in 12 Std. -
So, 15.05. 2:00 0.0 l/m2 in 6 Std. -
Sa, 14.05. 20:00 0.0 l/m2 in 12 Std. -
Sa, 14.05. 14:00 0.0 l/m2 in 6 Std. -
Sa, 14.05. 8:00 0.1 l/m2 in 12 Std. -
Ortszeit Niederschlagsmenge Niederschlagsart
Mo, 16.05. 7:00 0.0 l/m2 in 1 Std. -
Mo, 16.05. 6:50 keine Meldung -
Mo, 16.05. 6:40 keine Meldung -
Mo, 16.05. 6:30 0.0 l/m2 in 1 Std. -
Mo, 16.05. 6:20 keine Meldung -
Mo, 16.05. 6:10 keine Meldung -
Mo, 16.05. 6:00 0.0 l/m2 in 1 Std. -
Mo, 16.05. 5:30 0.0 l/m2 in 1 Std. -
Mo, 16.05. 5:00 0.0 l/m2 in 1 Std. -
Mo, 16.05. 4:30 0.0 l/m2 in 1 Std. -
Mo, 16.05. 4:00 0.0 l/m2 in 1 Std. -
Ortszeit Stärke Spitze Richtung
km/h Bft. km/h Grad Sektor
Mo, 16.05. 2:00 4 1 18 50° NO
So, 15.05. 20:00 7 2 18 30° NO
So, 15.05. 14:00 6 1 20 250° W
So, 15.05. 8:00 7 2 11 280° W
So, 15.05. 2:00 4 1 25 250° W
Sa, 14.05. 20:00 11 2 36 310° NW
Sa, 14.05. 14:00 17 3 37 280° W
Sa, 14.05. 8:00 11 2 22 250° W
Ortszeit Stärke Spitze Richtung
km/h Bft. km/h Grad Sektor
Mo, 16.05. 7:00 7 2 14 80° O
Mo, 16.05. 6:50 7 2 - 80° O
Mo, 16.05. 6:40 6 1 - 70° O
Mo, 16.05. 6:30 6 1 9 70° O
Mo, 16.05. 6:20 6 1 - 70° O
Mo, 16.05. 6:10 4 1 - 60° NO
Mo, 16.05. 6:00 4 1 11 60° NO
Mo, 16.05. 5:30 4 1 11 60° NO
Mo, 16.05. 5:00 6 1 9 60° NO
Mo, 16.05. 4:30 4 1 7 60° NO
Mo, 16.05. 4:00 4 1 7 70° O
Ortszeit Untergrenze Bedeckung Gattung
total tief tief mittel hoch
Mo, 16.05. 2:00 10500 m 5/8 0/8 - - -
So, 15.05. 20:00 - 0/8 0/8 - - -
So, 15.05. 14:00 - 0/8 0/8 - - -
So, 15.05. 8:00 - 0/8 0/8 - - -
So, 15.05. 2:00 - 0/8 0/8 - - -
Sa, 14.05. 20:00 - 0/8 0/8 - - -
Sa, 14.05. 14:00 1440 m 8/8 8/8 - - -
Sa, 14.05. 8:00 1080 m 8/8 8/8 - - -
Ortszeit Bedeckungsgrad in Achtel und Wolkenuntergrenze
Mo, 16.05. 7:00 1(9000m)
Mo, 16.05. 6:50 1(9000m)
Mo, 16.05. 6:40 3
Mo, 16.05. 6:30 2(9000m)
Mo, 16.05. 6:20 2(9000m)
Mo, 16.05. 6:10 1
Mo, 16.05. 6:00 keine Wolken
Mo, 16.05. 5:30 1(10500m)
Mo, 16.05. 5:00 7(9000m)
Mo, 16.05. 4:30 2(10500m)
Mo, 16.05. 4:00 keine Wolken
Ortszeit Luftdruck NN (hPa) Tendenz (hPa in 3 Std.)
Mo, 16.05. 2:00 1022 + 0,6
So, 15.05. 20:00 1020 - 0,7
So, 15.05. 14:00 1022 - 0,9
So, 15.05. 8:00 1023 + 1,3
So, 15.05. 2:00 1022 + 0,8
Sa, 14.05. 20:00 1020 + 0,7
Sa, 14.05. 14:00 1019 + 0,2
Sa, 14.05. 8:00 1018 + 0,5
Ortszeit Luftdruck NN (hPa) Tendenz (hPa in 3 Std.)
Mo, 16.05. 7:00 1021 - 0,7
Mo, 16.05. 6:50 1021 keine Meldung
Mo, 16.05. 6:40 1020 keine Meldung
Mo, 16.05. 6:30 1020 - 1,0
Mo, 16.05. 6:20 1020 keine Meldung
Mo, 16.05. 6:10 1021 keine Meldung
Mo, 16.05. 6:00 1021 - 0,9
Mo, 16.05. 5:30 1021 - 0,8
Mo, 16.05. 5:00 1021 - 0,7
Mo, 16.05. 4:30 1021 - 0,4
Mo, 16.05. 4:00 1021 + 0,1
Ortszeit Schneehöhe (cm)
Mo, 16.05. 2:00 0
So, 15.05. 20:00 0
So, 15.05. 14:00 0
So, 15.05. 8:00 0
So, 15.05. 2:00 0
Sa, 14.05. 20:00 0
Sa, 14.05. 14:00 0
Sa, 14.05. 8:00 0
Ortszeit Schneehöhe (cm)
Mo, 16.05. 7:00 0
Mo, 16.05. 6:50 0
Mo, 16.05. 6:40 0
Mo, 16.05. 6:30 0
Mo, 16.05. 6:20 0
Mo, 16.05. 6:10 0
Mo, 16.05. 6:00 0
Mo, 16.05. 5:30 0
Mo, 16.05. 5:00 0
Mo, 16.05. 4:30 0
Mo, 16.05. 4:00 0
Link zu dieser Seite / Seite empfehlen

Das Wetter in ...